Santa Cruz, Philippines
Current Conditions -  °F | °C
As of 9:00 PM on Thursday 30 Oct 2014 (Local Time) from RPLL Reporting Station
Broken Clouds Broken Clouds  
Wind Chill: 82°   Ceiling: 8000
Heat Index: 86°   Visibility: 6mi
Dew Point: 70°   Wind: 3mph
Humidity: 66%   Direction: 90°E
Pressure: 29.85"   Gusts: NA
Location:  14.28°N, 121.42°E
Report Text: RPLL 301300Z 09003KT 9999 SCT025 BKN080 28/21 Q1011 NOSGI RMKA2985
Loading
Personal Weather Stations






























Interactive Weather Map
Tropical Storm Tracking
New forecast layout! Learn more

10-Day Weather Forecast

Advertisements
Track Severe Weather on mobile